Alpine, Arkansas
Current Conditions -  °F | °C
As of 10:56 PM on Saturday 22 Nov 2014 (Local Time) from KADF Reporting Station
Broken Clouds Broken Clouds  
Wind Chill: 61°   Ceiling: 3400
Heat Index: 61°   Visibility: 10mi
Dew Point: 58°   Wind: 6mph
Humidity: 90%   Direction: 130°SE
Pressure: 29.86"   Gusts: NA
Location:  34.23°N, 93.38°W
Report Text: KADF 230456Z AUTO 13005KT 10SM BKN034 BKN075 16/14 A2986 RMK AO2 T01610144 SLP126
Loading
Personal Weather Stations






























Interactive Weather Map New forecast layout! Learn more

10-Day Weather Forecast

Advertisements
Track Severe Weather on mobile